Terminal Aerodrome Forecast
Issued by NWS

Home | Current Version | Previous Version | Graphics & Text | Print | Product List | Glossary On
Versions: 1 2 3 4 5 6 7 8 9 10 11 12 13 14 15 16 17 18 19 20 21 22 23 24 25 26 27 28 29
000
FTUS43 KLOT 280915 AAB
TAFDPA
TAF AMD
KDPA 280915Z 2809/2906 05010KT 4SM BR FEW008 SCT019 BKN070
      TEMPO 2809/2810 BKN020
     FM281200 07012G16KT P6SM SCT007 OVC010
     FM281600 06014G20KT P6SM VCSH OVC015
     FM282100 05011KT P6SM OVC015
     FM290100 02005KT P6SM OVC010=

USA.gov is the U.S. government's official web portal to all federal, state and local government web resources and services.